Time;durP1;ratioP1;P1;durP2;ratioP2;P2;SDS_P1;SDS_P2;PMS_P1;PMS_P2;Temp;Humidity;BMP_temperature;BMP_pressure;BME280_temperature;BME280_humidity;BME280_pressure;Samples;Min_cycle;Max_cycle;Signal;HPM_P1;HPM_P2
2022/05/19 00:04:40;;;;;;;4.60;2.78;;;;;;;17.10;59.41;96452.59;10397120;28;98447;-64
2022/05/19 00:09:44;;;;;;;4.22;2.40;;;;;;;17.19;59.39;96457.56;10404527;28;98336;-65
2022/05/19 00:14:47;;;;;;;3.17;2.25;;;;;;;17.33;58.72;96457.75;10403116;27;98724;-64
2022/05/19 00:19:50;;;;;;;4.93;2.47;;;;;;;17.35;58.92;96459.22;10402168;28;101400;-64
2022/05/19 00:24:54;;;;;;;4.30;2.58;;;;;;;17.40;59.15;96452.53;10395655;27;99394;-64
2022/05/19 00:29:57;;;;;;;5.53;2.50;;;;;;;17.56;57.98;96458.44;10411507;27;99359;-64
2022/05/19 00:35:00;;;;;;;4.90;2.65;;;;;;;17.53;58.76;96460.63;10395023;28;98814;-64
2022/05/19 00:40:05;;;;;;;7.05;2.65;;;;;;;17.19;60.59;96447.00;10401542;28;98486;-64
2022/05/19 00:45:10;;;;;;;4.13;2.22;;;;;;;17.16;60.19;96457.13;10406953;27;98456;-64
2022/05/19 00:50:21;;;;;;;3.40;2.50;;;;;;;17.10;61.04;96455.22;10395916;28;98917;-64
2022/05/19 00:55:30;;;;;;;4.53;2.40;;;;;;;17.10;61.20;96452.59;10405983;28;98312;-64
2022/05/19 01:00:33;;;;;;;5.00;2.70;;;;;;;17.00;61.53;96444.94;10402651;27;99093;-64
2022/05/19 01:05:39;;;;;;;7.82;2.88;;;;;;;16.88;62.37;96446.41;10398700;28;98393;-64
2022/05/19 01:10:45;;;;;;;5.45;2.65;;;;;;;16.66;62.58;96421.72;10400893;27;98646;-64
2022/05/19 01:15:51;;;;;;;4.10;2.50;;;;;;;16.75;62.29;96436.50;10395499;28;99203;-64
2022/05/19 01:20:55;;;;;;;4.85;2.70;;;;;;;16.89;60.58;96440.94;10399487;27;97691;-64
2022/05/19 01:26:09;;;;;;;3.77;2.50;;;;;;;17.02;60.34;96440.28;10401588;28;98600;-64
2022/05/19 01:36:41;;;;;;;6.00;2.60;;;;;;;17.03;60.66;96449.06;10417601;27;98851;-64
2022/05/19 01:42:02;;;;;;;5.80;2.33;;;;;;;16.96;61.68;96446.31;10400398;27;97589;-64
2022/05/19 01:47:11;;;;;;;5.25;3.00;;;;;;;16.90;62.47;96447.03;10399418;27;98012;-64
2022/05/19 01:52:19;;;;;;;3.53;2.63;;;;;;;16.84;61.86;96448.59;10405591;28;99919;-64
2022/05/19 01:57:27;;;;;;;4.45;2.60;;;;;;;16.58;63.21;96455.09;10397605;28;96929;-64
2022/05/19 02:02:38;;;;;;;4.53;2.97;;;;;;;16.26;64.07;96450.94;10398186;28;97116;-64
2022/05/19 02:07:46;;;;;;;5.85;3.05;;;;;;;16.32;64.20;96449.41;10392305;28;96833;-64
2022/05/19 02:12:49;;;;;;;4.65;2.70;;;;;;;16.09;65.65;96454.72;10400454;28;97736;-64
2022/05/19 02:17:53;;;;;;;4.88;2.83;;;;;;;16.00;66.06;96467.13;10397739;28;97587;-64
2022/05/19 02:22:58;;;;;;;6.13;3.00;;;;;;;16.19;64.92;96471.91;10395839;28;98241;-64
2022/05/19 02:28:05;;;;;;;4.05;3.25;;;;;;;16.38;64.25;96475.03;10399621;28;98062;-64
2022/05/19 02:33:09;;;;;;;5.70;3.40;;;;;;;16.49;64.29;96482.53;10396636;28;98712;-64
2022/05/19 02:38:14;;;;;;;4.63;2.97;;;;;;;16.44;64.55;96490.97;10400605;27;97196;-64
2022/05/19 02:43:19;;;;;;;4.07;3.00;;;;;;;16.40;64.77;96502.88;10400811;27;98490;-64
2022/05/19 02:48:23;;;;;;;4.93;3.33;;;;;;;16.31;65.42;96503.97;10369343;28;98546;-64
2022/05/19 02:53:28;;;;;;;5.10;3.55;;;;;;;16.20;65.76;96514.91;10369352;28;97131;-64
2022/05/19 02:58:31;;;;;;;5.55;3.78;;;;;;;16.18;65.86;96516.91;10369737;28;97773;-64
2022/05/19 03:03:34;;;;;;;6.65;3.65;;;;;;;16.19;66.16;96522.00;10370840;28;98548;-64
2022/05/19 03:08:38;;;;;;;9.90;3.67;;;;;;;16.13;66.95;96512.16;10370893;28;96932;-64
2022/05/19 03:13:41;;;;;;;7.13;3.80;;;;;;;16.08;66.22;96521.59;10372477;28;97511;-65
2022/05/19 03:18:43;;;;;;;5.57;4.13;;;;;;;16.00;67.31;96517.19;10367980;28;98755;-64
2022/05/19 03:23:48;;;;;;;5.00;3.85;;;;;;;15.88;67.73;96528.13;10370656;28;98724;-64
2022/05/19 03:28:51;;;;;;;6.57;3.97;;;;;;;15.91;68.21;96526.13;10372092;28;98537;-64
2022/05/19 03:33:54;;;;;;;8.18;4.65;;;;;;;15.90;68.08;96529.78;10370226;28;99014;-64
2022/05/19 03:38:58;;;;;;;7.72;4.68;;;;;;;16.08;68.61;96532.94;10373280;28;96892;-64
2022/05/19 03:44:01;;;;;;;6.70;4.45;;;;;;;16.14;67.38;96532.25;10367132;28;98404;-64
2022/05/19 03:49:04;;;;;;;6.32;4.22;;;;;;;16.25;67.04;96531.00;10371553;28;96990;-64
2022/05/19 03:54:09;;;;;;;5.78;3.80;;;;;;;16.29;67.37;96531.47;10373582;28;97201;-64
2022/05/19 03:59:11;;;;;;;5.07;3.65;;;;;;;16.36;66.57;96535.88;10375769;28;98683;-64
2022/05/19 04:04:14;;;;;;;5.72;4.25;;;;;;;16.34;66.66;96543.13;10367179;28;98532;-64
2022/05/19 04:09:19;;;;;;;7.90;4.00;;;;;;;16.30;66.78;96548.94;10370195;28;98457;-64
2022/05/19 04:14:22;;;;;;;6.78;3.80;;;;;;;16.22;67.12;96555.94;10365114;28;98465;-64
2022/05/19 04:19:25;;;;;;;5.03;3.70;;;;;;;15.90;68.13;96567.47;10363577;28;97666;-64
2022/05/19 04:24:29;;;;;;;6.53;4.30;;;;;;;15.82;68.88;96568.31;10364023;28;101148;-64
2022/05/19 04:29:32;;;;;;;7.00;4.50;;;;;;;15.94;69.22;96578.50;10362163;28;96877;-64
2022/05/19 04:34:35;;;;;;;6.43;4.45;;;;;;;16.18;67.98;96575.69;10363769;28;97304;-64
2022/05/19 04:39:39;;;;;;;5.88;4.40;;;;;;;16.27;68.78;96573.84;10372790;28;98868;-64
2022/05/19 04:44:42;;;;;;;6.70;4.32;;;;;;;16.34;69.00;96581.88;10370617;28;97857;-64
2022/05/19 04:49:45;;;;;;;8.25;4.72;;;;;;;16.57;68.73;96585.34;10367929;28;100449;-64
2022/05/19 04:54:49;;;;;;;6.85;4.25;;;;;;;16.79;67.52;96582.88;10360845;28;98282;-64
2022/05/19 04:59:52;;;;;;;7.10;4.43;;;;;;;16.91;66.95;96589.34;10368685;28;98370;-64
2022/05/19 05:04:55;;;;;;;5.78;4.53;;;;;;;17.02;67.47;96597.84;10381018;28;96951;-64
2022/05/19 05:09:59;;;;;;;7.57;4.45;;;;;;;17.07;67.90;96598.13;10373463;28;96764;-64
2022/05/19 05:15:02;;;;;;;7.82;4.38;;;;;;;17.26;67.44;96612.63;10372921;28;97101;-64
2022/05/19 05:20:08;;;;;;;6.32;4.68;;;;;;;17.41;67.42;96623.22;10366341;28;96940;-64
2022/05/19 05:25:15;;;;;;;6.90;4.60;;;;;;;17.59;66.36;96626.28;10366346;28;96946;-64
2022/05/19 05:30:18;;;;;;;7.40;4.43;;;;;;;17.76;65.94;96633.03;10364995;28;99257;-64
2022/05/19 05:35:21;;;;;;;8.15;4.60;;;;;;;18.01;64.85;96639.88;10364798;28;98610;-64
2022/05/19 05:40:26;;;;;;;6.43;4.97;;;;;;;18.18;65.09;96632.56;10369674;28;97479;-64
2022/05/19 05:45:28;;;;;;;6.40;4.82;;;;;;;18.34;65.34;96636.81;10367211;28;97032;-64
2022/05/19 05:50:32;;;;;;;6.95;4.35;;;;;;;18.43;64.82;96646.25;10364722;28;97792;-64
2022/05/19 05:55:39;;;;;;;9.45;4.65;;;;;;;18.58;64.80;96651.50;10363996;28;98626;-64
2022/05/19 06:00:42;;;;;;;7.13;4.85;;;;;;;18.65;65.33;96647.94;10370150;28;96715;-64
2022/05/19 06:05:45;;;;;;;7.85;5.10;;;;;;;18.80;65.28;96655.00;10364876;28;98152;-64
2022/05/19 06:10:50;;;;;;;5.57;4.57;;;;;;;18.91;65.14;96645.75;10361506;28;97128;-64
2022/05/19 06:15:52;;;;;;;9.70;5.32;;;;;;;19.02;65.65;96655.84;10365899;28;98577;-64
2022/05/19 06:20:55;;;;;;;8.30;4.63;;;;;;;19.21;65.63;96657.81;10366928;28;99281;-64
2022/05/19 06:26:00;;;;;;;8.65;5.25;;;;;;;19.46;65.54;96667.16;10371904;28;98661;-64
2022/05/19 06:31:04;;;;;;;9.70;5.20;;;;;;;19.68;65.20;96662.59;10375486;28;98826;-64
2022/05/19 06:36:09;;;;;;;8.05;5.43;;;;;;;19.89;64.61;96667.88;10376456;28;102314;-64
2022/05/19 06:46:34;;;;;;;12.13;5.15;;;;;;;20.41;63.25;96680.72;10371525;28;96842;-64
2022/05/19 06:51:37;;;;;;;7.70;4.93;;;;;;;20.52;62.53;96674.84;10373577;28;98430;-64
2022/05/19 06:56:41;;;;;;;10.95;5.05;;;;;;;20.70;61.47;96685.75;10374881;28;99083;-65
2022/05/19 07:01:45;;;;;;;10.07;5.07;;;;;;;20.87;61.19;96688.03;10371916;28;97690;-64
2022/05/19 07:06:48;;;;;;;9.80;5.40;;;;;;;20.93;60.50;96687.25;10373534;28;97440;-64
2022/05/19 07:11:53;;;;;;;9.73;4.82;;;;;;;20.91;60.46;96678.63;10376327;28;97100;-66
2022/05/19 07:16:56;;;;;;;8.88;4.70;;;;;;;20.92;60.92;96688.25;10367846;28;97095;-64
2022/05/19 07:21:59;;;;;;;6.97;4.72;;;;;;;20.99;60.65;96691.72;10370334;28;98471;-64
2022/05/19 07:27:03;;;;;;;6.25;4.75;;;;;;;21.09;59.92;96694.00;10372939;28;96843;-64
2022/05/19 07:32:08;;;;;;;6.32;4.97;;;;;;;21.18;60.26;96695.44;10359505;28;96911;-64
2022/05/19 07:37:11;;;;;;;6.65;4.55;;;;;;;21.17;60.12;96692.97;10371340;28;97674;-63
2022/05/19 07:42:16;;;;;;;5.87;4.67;;;;;;;21.23;59.65;96692.16;10367085;28;97589;-64
2022/05/19 07:47:20;;;;;;;7.88;4.78;;;;;;;21.20;60.40;96689.91;10367831;28;98039;-64
2022/05/19 07:52:23;;;;;;;6.32;4.47;;;;;;;21.27;60.48;96698.69;10370526;28;105040;-64
2022/05/19 07:57:27;;;;;;;8.05;4.50;;;;;;;21.43;59.46;96695.66;10363420;28;98802;-64
2022/05/19 08:02:32;;;;;;;5.57;4.75;;;;;;;21.68;59.05;96689.72;10369613;28;96980;-64
2022/05/19 08:07:34;;;;;;;8.88;4.70;;;;;;;21.95;58.36;96695.78;10361498;28;96865;-64
2022/05/19 08:17:59;;;;;;;5.88;4.25;;;;;;;22.18;57.67;96687.34;10370275;28;97120;-64
2022/05/19 08:23:03;;;;;;;10.63;5.18;;;;;;;22.21;57.98;96684.28;10362512;28;97283;-64
2022/05/19 08:28:07;;;;;;;7.72;4.20;;;;;;;22.30;57.46;96692.00;10368611;28;97818;-64
2022/05/19 08:33:11;;;;;;;7.20;4.57;;;;;;;22.36;57.21;96685.84;10370603;28;99465;-64
2022/05/19 08:38:15;;;;;;;;;;;;;;;22.41;56.95;96675.38;10371208;28;96795;-64
2022/05/19 08:43:23;;;;;;;8.57;4.22;;;;;;;22.46;56.23;96678.25;10367214;28;97168;-64
2022/05/19 08:48:35;;;;;;;6.63;3.65;;;;;;;22.57;56.19;96676.75;10369258;28;98449;-64
2022/05/19 08:53:42;;;;;;;6.35;3.53;;;;;;;22.60;55.44;96687.00;10366637;28;97002;-64
2022/05/19 08:58:59;;;;;;;6.88;4.30;;;;;;;22.65;55.56;96684.50;10369379;28;97706;-64
2022/05/19 09:04:26;;;;;;;7.97;4.30;;;;;;;22.75;55.38;96676.03;10361129;28;97094;-64
2022/05/19 09:09:41;;;;;;;10.00;4.13;;;;;;;22.85;55.05;96678.25;10376447;28;98388;-64
2022/05/19 09:14:46;;;;;;;4.68;3.40;;;;;;;22.92;54.84;96685.16;10372770;28;101384;-64
2022/05/19 09:19:54;;;;;;;6.65;4.05;;;;;;;23.12;54.69;96678.88;10368063;28;97146;-64
2022/05/19 09:24:58;;;;;;;4.80;3.05;;;;;;;23.19;54.17;96677.00;10372653;28;97080;-64
2022/05/19 09:30:04;;;;;;;4.73;2.97;;;;;;;23.36;53.82;96663.97;10371395;28;96939;-64
2022/05/19 09:35:11;;;;;;;6.55;3.20;;;;;;;23.70;52.09;96670.59;10368861;28;97050;-64
2022/05/19 09:40:24;;;;;;;10.15;3.30;;;;;;;24.05;51.51;96672.72;10371168;28;98672;-64
2022/05/19 09:45:49;;;;;;;7.53;2.90;;;;;;;24.21;49.65;96666.00;10366940;28;96819;-64
2022/05/19 09:50:52;;;;;;;8.05;3.53;;;;;;;24.28;49.39;96668.59;10365539;28;97066;-64
2022/05/19 09:55:56;;;;;;;8.87;3.20;;;;;;;24.57;48.93;96671.50;10374264;28;97007;-64
2022/05/19 10:01:05;;;;;;;6.28;3.00;;;;;;;24.86;48.21;96662.69;10379340;28;96862;-64
2022/05/19 10:06:15;;;;;;;5.53;2.80;;;;;;;25.11;47.36;96663.56;10377839;28;96987;-64
2022/05/19 10:11:27;;;;;;;3.97;2.75;;;;;;;25.49;46.83;96649.75;10371346;28;96907;-64
2022/05/19 10:16:37;;;;;;;3.60;2.70;;;;;;;25.79;46.05;96660.38;10380907;28;96932;-64
2022/05/19 10:21:59;;;;;;;4.28;2.65;;;;;;;26.13;44.93;96649.81;10379614;28;96807;-64
2022/05/19 10:32:49;;;;;;;4.85;2.50;;;;;;;26.34;42.07;96655.63;10375521;28;97021;-64
2022/05/19 10:38:03;;;;;;;4.78;2.60;;;;;;;26.42;42.12;96651.78;10364228;28;97000;-64
2022/05/19 10:43:28;;;;;;;4.25;2.90;;;;;;;26.56;42.86;96637.03;10371441;28;97463;-64
2022/05/19 10:48:51;;;;;;;5.20;2.58;;;;;;;26.77;41.50;96627.50;10370235;28;99286;-64
2022/05/19 10:54:10;;;;;;;6.27;2.40;;;;;;;26.91;40.60;96636.03;10373081;28;97676;-64
2022/05/19 10:59:32;;;;;;;5.15;2.70;;;;;;;26.97;39.94;96635.13;10374813;28;97031;-65
2022/05/19 11:05:09;;;;;;;4.97;2.53;;;;;;;26.91;39.58;96639.53;10375448;28;96783;-64
2022/05/19 11:10:25;;;;;;;4.13;2.63;;;;;;;27.00;39.12;96631.91;10377421;28;97005;-64
2022/05/19 11:15:37;;;;;;;3.92;2.15;;;;;;;27.07;39.71;96627.22;10378490;28;96889;-64
2022/05/19 11:20:53;;;;;;;5.47;2.72;;;;;;;27.15;39.88;96627.88;10374712;28;96751;-64
2022/05/19 11:31:36;;;;;;;5.88;2.70;;;;;;;27.45;39.39;96616.81;10368749;27;96779;-64
2022/05/19 11:36:44;;;;;;;6.03;2.67;;;;;;;27.75;39.55;96627.19;10382308;28;98482;-64
2022/05/19 11:41:48;;;;;;;7.90;3.05;;;;;;;27.82;38.82;96616.25;10388847;28;97004;-65
2022/05/19 11:46:59;;;;;;;4.13;2.65;;;;;;;27.94;38.47;96606.22;10387718;28;97026;-64
2022/05/19 11:57:45;;;;;;;5.45;2.75;;;;;;;28.69;37.36;96609.22;10277224;28;97934;-65
2022/05/19 12:02:53;;;;;;;6.03;2.40;;;;;;;28.89;35.92;96603.22;10263013;28;97101;-65
2022/05/19 12:08:01;;;;;;;4.70;2.30;;;;;;;28.87;35.79;96602.66;10262034;28;96891;-65
2022/05/19 12:13:06;;;;;;;5.05;2.65;;;;;;;28.85;36.08;96604.78;10257557;28;97239;-65
2022/05/19 12:18:32;;;;;;;5.45;2.40;;;;;;;28.86;36.36;96614.47;10260700;28;98323;-65
2022/05/19 12:23:40;;;;;;;5.10;2.60;;;;;;;28.87;36.29;96624.16;10261807;28;97003;-64
2022/05/19 12:28:51;;;;;;;5.25;2.60;;;;;;;28.85;36.38;96633.56;10259657;28;96912;-64
2022/05/19 12:33:58;;;;;;;5.00;2.25;;;;;;;28.53;37.05;96637.84;10340649;28;97011;-64
2022/05/19 12:39:27;;;;;;;6.10;3.00;;;;;;;28.42;37.95;96646.84;10387338;28;97235;-64
2022/05/19 12:44:51;;;;;;;5.00;2.72;;;;;;;28.52;38.08;96646.94;10386891;28;96870;-64
2022/05/19 12:50:18;;;;;;;7.45;2.80;;;;;;;28.60;38.20;96649.19;10386929;28;97182;-64
2022/05/19 12:55:42;;;;;;;6.20;2.97;;;;;;;28.56;38.44;96660.69;10368649;28;96898;-64
2022/05/19 13:00:45;;;;;;;7.78;2.90;;;;;;;28.29;39.54;96671.38;10380821;28;96832;-64
2022/05/19 13:05:53;;;;;;;6.38;3.05;;;;;;;27.80;39.19;96678.25;10385661;28;97140;-64
2022/05/19 13:11:03;;;;;;;7.65;2.75;;;;;;;27.61;39.35;96666.13;10385237;28;96970;-64
2022/05/19 13:16:13;;;;;;;4.38;2.55;;;;;;;27.40;40.21;96657.78;10397592;28;96867;-64
2022/05/19 13:21:23;;;;;;;10.65;3.72;;;;;;;27.27;41.02;96660.81;10384444;28;96837;-64
2022/05/19 13:26:29;;;;;;;6.75;2.90;;;;;;;27.05;41.62;96658.81;10385745;28;96995;-64
2022/05/19 13:31:32;;;;;;;9.75;3.50;;;;;;;26.80;42.28;96653.81;10381539;28;96969;-64
2022/05/19 13:36:37;;;;;;;9.98;3.10;;;;;;;26.25;43.83;96663.22;10385180;28;96879;-64
2022/05/19 13:41:50;;;;;;;5.55;2.90;;;;;;;25.91;43.27;96655.00;10386349;28;96775;-64
2022/05/19 13:46:53;;;;;;;7.20;2.72;;;;;;;25.70;41.87;96652.91;10384026;27;97102;-64
2022/05/19 13:51:58;;;;;;;8.93;2.30;;;;;;;25.61;41.43;96663.97;10382217;28;96746;-64
2022/05/19 13:57:05;;;;;;;3.92;2.10;;;;;;;25.09;44.17;96665.66;10384895;28;96831;-64
2022/05/19 14:02:12;;;;;;;5.80;2.00;;;;;;;24.55;45.78;96654.88;10384726;27;96865;-64
2022/05/19 14:07:17;;;;;;;4.15;2.00;;;;;;;24.27;46.86;96648.25;10380419;28;96770;-64
2022/05/19 14:12:37;;;;;;;4.55;2.20;;;;;;;24.09;47.80;96649.09;10385486;28;96790;-64
2022/05/19 14:17:44;;;;;;;5.05;2.15;;;;;;;24.10;48.36;96638.19;10384336;28;97374;-64
2022/05/19 14:22:49;;;;;;;5.57;2.17;;;;;;;24.02;48.45;96630.47;10382259;28;96823;-64
2022/05/19 14:28:03;;;;;;;3.58;2.30;;;;;;;24.05;49.04;96624.69;10381870;28;96939;-64
2022/05/19 14:33:09;;;;;;;8.82;2.85;;;;;;;24.01;50.31;96614.69;10383701;28;97493;-64
2022/05/19 14:38:18;;;;;;;8.35;3.00;;;;;;;24.07;51.04;96625.31;10384175;28;96960;-64
2022/05/19 14:43:25;;;;;;;6.57;2.78;;;;;;;24.67;52.83;96610.34;10384993;28;96764;-64
2022/05/19 14:48:35;;;;;;;6.40;2.20;;;;;;;26.28;49.38;96603.03;10391177;28;96793;-64
2022/05/19 14:53:39;;;;;;;6.25;2.42;;;;;;;28.00;46.77;96596.38;10390686;28;96942;-64
2022/05/19 14:58:49;;;;;;;4.68;2.40;;;;;;;29.59;44.89;96589.75;10388024;28;96828;-64
2022/05/19 15:03:52;;;;;;;3.53;2.50;;;;;;;30.75;41.97;96576.16;10388323;28;96948;-64
2022/05/19 15:08:57;;;;;;;4.07;2.47;;;;;;;31.29;39.13;96584.78;10390376;28;96929;-64
2022/05/19 15:14:01;;;;;;;5.97;2.70;;;;;;;32.00;38.55;96570.34;10390444;28;96717;-65
2022/05/19 15:19:09;;;;;;;5.60;2.53;;;;;;;32.60;37.86;96567.59;10370133;28;96956;-64
2022/05/19 15:24:12;;;;;;;4.97;2.38;;;;;;;33.09;36.29;96580.22;10390118;28;97780;-65
2022/05/19 15:29:17;;;;;;;6.47;2.70;;;;;;;33.50;36.03;96586.34;10389740;27;98523;-65
2022/05/19 15:34:22;;;;;;;4.40;2.53;;;;;;;33.69;35.46;96581.84;10381724;28;96972;-64
2022/05/19 15:39:25;;;;;;;6.20;2.53;;;;;;;33.75;34.31;96580.69;10383694;28;97079;-65
2022/05/19 15:44:30;;;;;;;5.82;2.67;;;;;;;33.89;35.07;96585.41;10383554;28;96969;-65
2022/05/19 15:49:33;;;;;;;4.88;2.55;;;;;;;34.07;33.70;96581.91;10380203;28;97043;-65
2022/05/19 15:54:36;;;;;;;3.95;2.63;;;;;;;34.29;33.58;96584.09;10377885;28;99617;-65
2022/05/19 15:59:46;;;;;;;5.57;2.75;;;;;;;34.45;33.59;96573.84;10374901;28;97002;-65
2022/05/19 16:04:49;;;;;;;5.30;2.50;;;;;;;34.49;32.84;96576.78;10378373;28;97956;-65
2022/05/19 16:09:53;;;;;;;4.55;3.08;;;;;;;34.46;32.35;96575.47;10375084;28;96965;-65
2022/05/19 16:14:58;;;;;;;6.25;2.30;;;;;;;34.51;32.02;96569.97;10375338;28;96834;-65
2022/05/19 16:20:01;;;;;;;3.35;2.15;;;;;;;34.63;31.46;96569.53;10378308;28;97033;-65
2022/05/19 16:25:07;;;;;;;4.38;2.35;;;;;;;34.98;31.55;96574.72;10373832;28;101807;-65
2022/05/19 16:30:12;;;;;;;3.55;2.35;;;;;;;35.21;31.43;96560.22;10377327;28;96887;-65
2022/05/19 16:35:15;;;;;;;4.70;2.42;;;;;;;35.02;31.58;96576.53;10376990;28;96776;-65
2022/05/19 16:40:18;;;;;;;5.55;2.70;;;;;;;35.26;31.35;96562.84;10376757;28;97151;-65
2022/05/19 16:45:23;;;;;;;4.28;2.88;;;;;;;35.37;31.26;96566.16;10374624;28;96793;-66
2022/05/19 16:50:29;;;;;;;8.48;3.00;;;;;;;35.31;31.00;96562.75;10377464;28;96875;-64
2022/05/19 17:00:55;;;;;;;6.13;2.63;;;;;;;34.53;32.40;96567.75;10379613;28;96969;-64
2022/05/19 17:05:59;;;;;;;6.38;2.75;;;;;;;34.61;32.56;96573.63;10385850;28;96920;-64
2022/05/19 17:11:02;;;;;;;3.13;2.30;;;;;;;35.13;32.42;96571.72;10381986;28;96752;-64
2022/05/19 17:16:07;;;;;;;7.57;2.78;;;;;;;35.27;31.42;96572.59;10360333;28;96863;-64
2022/05/19 17:21:11;;;;;;;5.63;2.83;;;;;;;35.29;32.17;96567.69;10381396;28;97602;-64
2022/05/19 17:26:15;;;;;;;4.80;2.60;;;;;;;35.03;32.10;96574.63;10385220;28;97010;-64
2022/05/19 17:31:21;;;;;;;4.15;2.60;;;;;;;34.48;32.88;96575.16;10381562;28;96984;-64
2022/05/19 17:36:24;;;;;;;3.97;2.75;;;;;;;34.51;32.77;96582.72;10386129;28;96883;-64
2022/05/19 17:41:27;;;;;;;5.00;2.63;;;;;;;34.37;33.57;96579.94;10380943;28;96891;-65
2022/05/19 17:46:32;;;;;;;4.22;2.95;;;;;;;34.14;33.55;96582.41;10394274;28;97133;-65
2022/05/19 17:51:35;;;;;;;5.45;2.90;;;;;;;33.79;34.15;96581.72;10382131;28;96785;-65
2022/05/19 17:56:38;;;;;;;6.57;3.30;;;;;;;32.92;34.96;96590.63;10398082;28;96696;-65
2022/05/19 18:01:42;;;;;;;7.10;3.60;;;;;;;31.49;36.93;96584.78;10380636;28;97074;-65
2022/05/19 18:06:45;;;;;;;5.68;3.70;;;;;;;30.31;38.09;96592.81;10381005;28;97000;-65
2022/05/19 18:11:48;;;;;;;4.55;3.60;;;;;;;29.59;39.38;96600.53;10384117;28;99697;-65
2022/05/19 18:22:12;;;;;;;6.40;4.05;;;;;;;27.87;42.17;96602.91;10373245;28;97173;-65
2022/05/19 18:27:22;;;;;;;6.43;4.05;;;;;;;27.46;43.29;96596.97;10390069;28;98831;-65
2022/05/19 18:32:27;;;;;;;6.93;4.20;;;;;;;26.99;44.46;96603.50;10391626;28;96878;-65
2022/05/19 18:37:31;;;;;;;10.77;6.38;;;;;;;26.67;45.27;96604.00;10387398;28;97100;-65
2022/05/19 18:47:56;;;;;;;21.05;5.78;;;;;;;26.17;47.02;96613.50;10373618;28;98771;-62
2022/05/19 18:52:59;;;;;;;8.63;4.80;;;;;;;25.56;48.18;96612.22;10378257;28;98261;-65
2022/05/19 18:58:01;;;;;;;6.05;4.00;;;;;;;24.83;49.33;96608.88;10380166;28;96949;-64
2022/05/19 19:03:06;;;;;;;7.50;4.15;;;;;;;24.48;50.10;96614.91;10368554;28;96902;-64
2022/05/19 19:08:09;;;;;;;7.95;4.50;;;;;;;24.24;50.79;96611.31;10369782;28;97231;-64
2022/05/19 19:13:12;;;;;;;5.22;4.45;;;;;;;24.13;51.27;96627.06;10374161;28;97161;-69
2022/05/19 19:18:16;;;;;;;5.80;4.40;;;;;;;24.18;51.03;96628.25;10376460;28;96989;-69
2022/05/19 19:23:19;;;;;;;10.25;4.78;;;;;;;23.98;52.46;96631.94;10374769;28;96781;-69
2022/05/19 19:28:22;;;;;;;8.05;5.30;;;;;;;23.89;52.63;96630.59;10367344;28;96676;-69
2022/05/19 19:33:27;;;;;;;10.57;5.38;;;;;;;23.69;53.34;96631.66;10389623;28;96895;-69
2022/05/19 19:38:49;;;;;;;;;;;;;;;23.50;52.19;96632.66;10379051;28;97113;-69
2022/05/19 19:43:52;;;;;;;5.18;4.63;;;;;;;23.29;53.59;96642.69;10377725;28;97715;-69
2022/05/19 19:48:57;;;;;;;6.03;4.75;;;;;;;23.29;53.50;96641.84;10370718;28;97504;-68
2022/05/19 19:54:00;;;;;;;7.97;5.15;;;;;;;23.24;54.50;96639.84;10368942;28;98845;-68
2022/05/19 19:59:03;;;;;;;10.20;5.68;;;;;;;23.06;55.60;96645.91;10377848;28;98452;-69
2022/05/19 20:04:09;;;;;;;6.95;5.25;;;;;;;22.89;56.03;96642.97;10372602;28;96963;-69
2022/05/19 20:09:12;;;;;;;9.15;5.85;;;;;;;22.62;56.76;96648.47;10382392;28;97307;-69
2022/05/19 20:14:15;;;;;;;7.63;5.63;;;;;;;22.42;57.15;96653.03;10372620;28;97118;-69
2022/05/19 20:19:19;;;;;;;7.88;5.55;;;;;;;22.35;57.69;96657.59;10386122;28;96865;-69
2022/05/19 20:24:22;;;;;;;8.23;6.10;;;;;;;22.09;58.71;96654.00;10370583;28;99354;-68
2022/05/19 20:29:25;;;;;;;8.98;5.47;;;;;;;21.78;59.07;96660.88;10368963;28;103231;-68
2022/05/19 20:34:30;;;;;;;7.13;4.97;;;;;;;21.66;59.50;96670.50;10368184;28;97220;-68
2022/05/19 20:39:33;;;;;;;10.40;6.32;;;;;;;21.50;60.43;96656.59;10371009;28;98950;-69
2022/05/19 20:44:37;;;;;;;8.40;6.17;;;;;;;21.34;60.95;96664.97;10366597;28;97866;-68
2022/05/19 20:49:41;;;;;;;9.25;6.68;;;;;;;21.21;61.18;96663.16;10367647;28;96997;-69
2022/05/19 20:54:43;;;;;;;;;;;;;;;21.12;60.04;96667.03;10367831;28;98705;-68
2022/05/19 20:59:46;;;;;;;9.90;5.95;;;;;;;20.96;60.32;96672.72;10365845;28;98491;-68
2022/05/19 21:04:51;;;;;;;10.68;6.10;;;;;;;20.83;61.24;96670.88;10366665;28;96971;-68
2022/05/19 21:09:54;;;;;;;9.23;5.80;;;;;;;20.77;61.52;96675.13;10377600;28;97108;-69
2022/05/19 21:14:58;;;;;;;9.30;6.38;;;;;;;20.67;62.54;96664.91;10366180;28;97855;-69
2022/05/19 21:20:02;;;;;;;8.03;6.37;;;;;;;20.36;63.19;96670.72;10367946;28;98335;-68
2022/05/19 21:30:27;;;;;;;9.30;6.60;;;;;;;20.24;63.43;96681.09;10370675;28;97207;-68
2022/05/19 21:35:33;;;;;;;7.50;6.70;;;;;;;20.08;64.17;96681.41;10365499;28;97229;-68
2022/05/19 21:40:40;;;;;;;9.68;6.97;;;;;;;20.00;65.08;96691.16;10358795;28;97094;-68
2022/05/19 21:45:44;;;;;;;9.48;7.45;;;;;;;19.94;64.47;96691.13;10359318;28;97442;-68
2022/05/19 21:56:05;;;;;;;10.00;6.45;;;;;;;19.82;64.47;96680.28;10379491;28;96722;-68
2022/05/19 22:01:08;;;;;;;8.98;6.28;;;;;;;19.78;63.87;96694.88;10368403;28;96888;-68
2022/05/19 22:11:34;;;;;;;9.00;6.60;;;;;;;19.65;64.81;96702.78;10367337;28;100491;-68
2022/05/19 22:16:36;;;;;;;9.75;7.00;;;;;;;19.49;65.60;96706.50;10366352;28;98929;-68
2022/05/19 22:21:41;;;;;;;8.07;5.97;;;;;;;19.43;65.92;96708.91;10369732;28;96861;-68
2022/05/19 22:26:44;;;;;;;10.60;6.10;;;;;;;19.42;65.32;96711.78;10365747;28;98511;-68
2022/05/19 22:31:47;;;;;;;10.20;6.25;;;;;;;19.36;65.62;96707.22;10364832;28;100513;-67
2022/05/19 22:36:51;;;;;;;11.33;6.37;;;;;;;19.25;66.27;96706.75;10372825;28;97294;-68
2022/05/19 22:41:55;;;;;;;9.55;6.15;;;;;;;19.18;66.20;96711.16;10373463;28;97221;-68
2022/05/19 22:52:21;;;;;;;9.60;6.32;;;;;;;19.04;66.57;96709.41;10369655;28;98547;-68
2022/05/19 22:57:24;;;;;;;7.93;6.50;;;;;;;18.87;66.99;96708.84;10371646;28;96967;-68
2022/05/19 23:02:27;;;;;;;8.73;6.82;;;;;;;18.76;66.80;96715.41;10370034;28;100678;-68
2022/05/19 23:07:31;;;;;;;9.18;6.07;;;;;;;18.59;67.76;96711.38;10371432;28;99503;-68
2022/05/19 23:12:34;;;;;;;9.02;6.18;;;;;;;18.50;66.93;96710.66;10365276;28;98931;-68
2022/05/19 23:17:38;;;;;;;9.75;5.88;;;;;;;18.44;67.16;96709.56;10370460;28;96947;-68
2022/05/19 23:22:42;;;;;;;6.68;5.32;;;;;;;18.59;66.43;96717.47;10367299;28;96957;-68
2022/05/19 23:27:45;;;;;;;10.52;6.60;;;;;;;18.66;65.64;96712.25;10372163;28;97701;-68
2022/05/19 23:38:10;;;;;;;9.95;5.93;;;;;;;18.53;66.19;96712.91;10372351;28;97074;-68
2022/05/19 23:43:13;;;;;;;8.10;5.53;;;;;;;18.57;65.70;96719.47;10369883;28;98643;-68
2022/05/19 23:48:18;;;;;;;8.38;5.88;;;;;;;18.40;66.06;96718.88;10369476;28;96884;-67
2022/05/19 23:53:23;;;;;;;13.23;6.18;;;;;;;18.36;66.69;96717.63;10366550;28;96865;-68
2022/05/19 23:58:27;;;;;;;9.60;5.60;;;;;;;18.38;65.49;96720.91;10368077;28;97773;-68
